sensor_id;sensor_type;location;lat;lon;timestamp;P1;durP1;ratioP1;P2;durP2;ratioP2
74872;SDS011;68776;44.762;37.698;2023-04-01T00:00:16;6.95;;;5.03;;
74872;SDS011;68776;44.762;37.698;2023-04-01T00:01:18;6.05;;;4.60;;
74872;SDS011;68776;44.762;37.698;2023-04-01T00:02:19;6.90;;;4.40;;
74872;SDS011;68776;44.762;37.698;2023-04-01T00:03:20;7.70;;;4.90;;
74872;SDS011;68776;44.762;37.698;2023-04-01T00:04:22;7.20;;;5.18;;
74872;SDS011;68776;44.762;37.698;2023-04-01T00:05:23;8.00;;;5.07;;
74872;SDS011;68776;44.762;37.698;2023-04-01T00:06:25;7.72;;;4.97;;
74872;SDS011;68776;44.762;37.698;2023-04-01T00:07:26;7.80;;;5.28;;
74872;SDS011;68776;44.762;37.698;2023-04-01T00:08:27;7.15;;;5.68;;
74872;SDS011;68776;44.762;37.698;2023-04-01T00:09:29;7.95;;;4.57;;
74872;SDS011;68776;44.762;37.698;2023-04-01T00:10:30;6.95;;;5.28;;
74872;SDS011;68776;44.762;37.698;2023-04-01T00:11:32;7.03;;;4.60;;
74872;SDS011;68776;44.762;37.698;2023-04-01T00:12:33;7.07;;;4.75;;
74872;SDS011;68776;44.762;37.698;2023-04-01T00:13:34;7.15;;;4.95;;
74872;SDS011;68776;44.762;37.698;2023-04-01T00:14:36;6.45;;;4.85;;
74872;SDS011;68776;44.762;37.698;2023-04-01T00:15:37;7.22;;;4.85;;
74872;SDS011;68776;44.762;37.698;2023-04-01T00:16:38;7.72;;;5.38;;
74872;SDS011;68776;44.762;37.698;2023-04-01T00:17:39;7.90;;;5.32;;
74872;SDS011;68776;44.762;37.698;2023-04-01T00:18:40;7.47;;;4.80;;
74872;SDS011;68776;44.762;37.698;2023-04-01T00:19:41;8.27;;;5.78;;
74872;SDS011;68776;44.762;37.698;2023-04-01T00:20:43;6.70;;;5.00;;
74872;SDS011;68776;44.762;37.698;2023-04-01T00:21:48;7.30;;;4.47;;
74872;SDS011;68776;44.762;37.698;2023-04-01T00:22:49;7.72;;;4.50;;
74872;SDS011;68776;44.762;37.698;2023-04-01T00:23:50;6.60;;;4.60;;
74872;SDS011;68776;44.762;37.698;2023-04-01T00:24:51;7.82;;;4.68;;
74872;SDS011;68776;44.762;37.698;2023-04-01T00:25:53;7.03;;;4.95;;
74872;SDS011;68776;44.762;37.698;2023-04-01T00:26:54;7.60;;;4.53;;
74872;SDS011;68776;44.762;37.698;2023-04-01T00:27:55;6.70;;;4.60;;
74872;SDS011;68776;44.762;37.698;2023-04-01T00:28:56;7.73;;;4.43;;
74872;SDS011;68776;44.762;37.698;2023-04-01T00:29:59;7.70;;;4.20;;
74872;SDS011;68776;44.762;37.698;2023-04-01T00:31:03;6.78;;;4.50;;
74872;SDS011;68776;44.762;37.698;2023-04-01T00:32:08;7.57;;;4.47;;
74872;SDS011;68776;44.762;37.698;2023-04-01T00:33:10;8.55;;;4.65;;
74872;SDS011;68776;44.762;37.698;2023-04-01T00:34:11;6.55;;;4.50;;
74872;SDS011;68776;44.762;37.698;2023-04-01T00:35:12;7.82;;;4.95;;
74872;SDS011;68776;44.762;37.698;2023-04-01T00:36:14;7.97;;;5.00;;
74872;SDS011;68776;44.762;37.698;2023-04-01T00:37:18;7.63;;;5.35;;
74872;SDS011;68776;44.762;37.698;2023-04-01T00:38:21;8.77;;;5.03;;
74872;SDS011;68776;44.762;37.698;2023-04-01T00:39:22;8.77;;;5.10;;
74872;SDS011;68776;44.762;37.698;2023-04-01T00:40:28;7.93;;;4.60;;
74872;SDS011;68776;44.762;37.698;2023-04-01T00:41:33;7.78;;;5.18;;
74872;SDS011;68776;44.762;37.698;2023-04-01T00:42:34;6.82;;;5.30;;
74872;SDS011;68776;44.762;37.698;2023-04-01T00:43:35;7.93;;;5.25;;
74872;SDS011;68776;44.762;37.698;2023-04-01T00:44:37;8.48;;;5.18;;
74872;SDS011;68776;44.762;37.698;2023-04-01T00:45:40;7.50;;;4.57;;
74872;SDS011;68776;44.762;37.698;2023-04-01T00:46:42;7.20;;;4.82;;
74872;SDS011;68776;44.762;37.698;2023-04-01T00:47:43;6.63;;;4.32;;
74872;SDS011;68776;44.762;37.698;2023-04-01T00:48:48;6.82;;;4.82;;
74872;SDS011;68776;44.762;37.698;2023-04-01T00:49:53;6.53;;;4.40;;
74872;SDS011;68776;44.762;37.698;2023-04-01T00:51:05;7.22;;;4.75;;
74872;SDS011;68776;44.762;37.698;2023-04-01T00:52:10;6.80;;;4.78;;
74872;SDS011;68776;44.762;37.698;2023-04-01T00:53:13;7.75;;;5.00;;
74872;SDS011;68776;44.762;37.698;2023-04-01T00:54:16;7.68;;;4.80;;
74872;SDS011;68776;44.762;37.698;2023-04-01T00:55:19;7.55;;;4.90;;
74872;SDS011;68776;44.762;37.698;2023-04-01T00:56:22;8.57;;;5.57;;
74872;SDS011;68776;44.762;37.698;2023-04-01T00:57:29;7.20;;;5.88;;
74872;SDS011;68776;44.762;37.698;2023-04-01T00:58:38;6.38;;;4.70;;
74872;SDS011;68776;44.762;37.698;2023-04-01T00:59:43;6.53;;;4.57;;
74872;SDS011;68776;44.762;37.698;2023-04-01T01:00:49;7.50;;;4.57;;
74872;SDS011;68776;44.762;37.698;2023-04-01T01:01:51;6.70;;;4.40;;
74872;SDS011;68776;44.762;37.698;2023-04-01T01:02:52;7.50;;;4.30;;
74872;SDS011;68776;44.762;37.698;2023-04-01T01:03:53;9.35;;;5.43;;
74872;SDS011;68776;44.762;37.698;2023-04-01T01:04:54;6.72;;;4.60;;
74872;SDS011;68776;44.762;37.698;2023-04-01T01:06:14;8.30;;;4.87;;
74872;SDS011;68776;44.762;37.698;2023-04-01T01:11:09;7.97;;;5.07;;
74872;SDS011;68776;44.762;37.698;2023-04-01T01:12:19;7.63;;;5.35;;
74872;SDS011;68776;44.762;37.698;2023-04-01T01:14:41;6.45;;;4.85;;
74872;SDS011;68776;44.762;37.698;2023-04-01T01:15:58;8.40;;;6.55;;
74872;SDS011;68776;44.762;37.698;2023-04-01T01:17:31;7.95;;;5.63;;
74872;SDS011;68776;44.762;37.698;2023-04-01T01:23:00;7.13;;;6.43;;
74872;SDS011;68776;44.762;37.698;2023-04-01T01:27:57;7.90;;;5.88;;
74872;SDS011;68776;44.762;37.698;2023-04-01T01:32:03;7.25;;;6.25;;
74872;SDS011;68776;44.762;37.698;2023-04-01T01:33:34;7.25;;;6.10;;
74872;SDS011;68776;44.762;37.698;2023-04-01T01:35:55;7.72;;;6.85;;
74872;SDS011;68776;44.762;37.698;2023-04-01T01:37:04;6.90;;;5.97;;
74872;SDS011;68776;44.762;37.698;2023-04-01T01:38:14;8.10;;;6.70;;
74872;SDS011;68776;44.762;37.698;2023-04-01T01:39:39;6.57;;;5.87;;
74872;SDS011;68776;44.762;37.698;2023-04-01T01:40:41;7.60;;;6.35;;
74872;SDS011;68776;44.762;37.698;2023-04-01T01:41:45;7.40;;;6.22;;
74872;SDS011;68776;44.762;37.698;2023-04-01T01:42:50;8.32;;;7.05;;
74872;SDS011;68776;44.762;37.698;2023-04-01T01:43:55;8.25;;;7.07;;
74872;SDS011;68776;44.762;37.698;2023-04-01T01:44:58;8.02;;;7.22;;
74872;SDS011;68776;44.762;37.698;2023-04-01T01:46:02;7.30;;;6.45;;
74872;SDS011;68776;44.762;37.698;2023-04-01T01:47:09;8.20;;;7.35;;
74872;SDS011;68776;44.762;37.698;2023-04-01T01:48:11;8.77;;;7.27;;
74872;SDS011;68776;44.762;37.698;2023-04-01T01:49:12;8.32;;;6.97;;
74872;SDS011;68776;44.762;37.698;2023-04-01T01:50:15;8.20;;;7.07;;
74872;SDS011;68776;44.762;37.698;2023-04-01T01:51:17;7.13;;;5.85;;
74872;SDS011;68776;44.762;37.698;2023-04-01T01:52:21;7.55;;;6.70;;
74872;SDS011;68776;44.762;37.698;2023-04-01T01:53:23;7.05;;;6.35;;
74872;SDS011;68776;44.762;37.698;2023-04-01T01:54:24;7.40;;;6.15;;
74872;SDS011;68776;44.762;37.698;2023-04-01T01:56:34;7.20;;;6.07;;
74872;SDS011;68776;44.762;37.698;2023-04-01T01:57:36;6.72;;;5.60;;
74872;SDS011;68776;44.762;37.698;2023-04-01T01:58:45;6.93;;;5.85;;
74872;SDS011;68776;44.762;37.698;2023-04-01T01:59:52;8.07;;;6.53;;
74872;SDS011;68776;44.762;37.698;2023-04-01T02:01:01;6.68;;;5.80;;
74872;SDS011;68776;44.762;37.698;2023-04-01T02:02:05;7.60;;;5.93;;
74872;SDS011;68776;44.762;37.698;2023-04-01T02:03:08;7.43;;;6.10;;
74872;SDS011;68776;44.762;37.698;2023-04-01T02:04:13;7.72;;;6.05;;
74872;SDS011;68776;44.762;37.698;2023-04-01T02:05:19;7.40;;;6.43;;
74872;SDS011;68776;44.762;37.698;2023-04-01T02:06:25;7.67;;;6.00;;
74872;SDS011;68776;44.762;37.698;2023-04-01T02:07:30;6.93;;;5.72;;
74872;SDS011;68776;44.762;37.698;2023-04-01T02:08:37;7.75;;;6.70;;
74872;SDS011;68776;44.762;37.698;2023-04-01T02:09:42;7.70;;;6.35;;
74872;SDS011;68776;44.762;37.698;2023-04-01T02:10:46;8.82;;;7.15;;
74872;SDS011;68776;44.762;37.698;2023-04-01T02:11:57;7.23;;;6.27;;
74872;SDS011;68776;44.762;37.698;2023-04-01T02:13:05;7.18;;;6.07;;
74872;SDS011;68776;44.762;37.698;2023-04-01T02:15:18;7.97;;;5.25;;
74872;SDS011;68776;44.762;37.698;2023-04-01T02:16:25;7.55;;;5.45;;
74872;SDS011;68776;44.762;37.698;2023-04-01T02:17:32;8.10;;;6.20;;
74872;SDS011;68776;44.762;37.698;2023-04-01T02:18:38;7.47;;;6.68;;
74872;SDS011;68776;44.762;37.698;2023-04-01T02:19:41;7.78;;;7.03;;
74872;SDS011;68776;44.762;37.698;2023-04-01T02:20:51;7.57;;;6.78;;
74872;SDS011;68776;44.762;37.698;2023-04-01T02:21:55;8.35;;;7.40;;
74872;SDS011;68776;44.762;37.698;2023-04-01T02:22:59;7.32;;;6.57;;
74872;SDS011;68776;44.762;37.698;2023-04-01T02:24:02;7.28;;;6.45;;
74872;SDS011;68776;44.762;37.698;2023-04-01T02:25:08;7.72;;;6.68;;
74872;SDS011;68776;44.762;37.698;2023-04-01T02:26:14;8.15;;;7.35;;
74872;SDS011;68776;44.762;37.698;2023-04-01T02:27:16;7.63;;;6.82;;
74872;SDS011;68776;44.762;37.698;2023-04-01T02:28:17;7.88;;;6.85;;
74872;SDS011;68776;44.762;37.698;2023-04-01T02:29:21;10.67;;;6.30;;
74872;SDS011;68776;44.762;37.698;2023-04-01T02:30:27;8.27;;;6.40;;
74872;SDS011;68776;44.762;37.698;2023-04-01T02:31:29;7.47;;;6.68;;
74872;SDS011;68776;44.762;37.698;2023-04-01T02:32:34;9.02;;;8.23;;
74872;SDS011;68776;44.762;37.698;2023-04-01T02:33:38;8.07;;;7.28;;
74872;SDS011;68776;44.762;37.698;2023-04-01T02:34:41;9.60;;;7.43;;
74872;SDS011;68776;44.762;37.698;2023-04-01T02:35:43;8.02;;;6.93;;
74872;SDS011;68776;44.762;37.698;2023-04-01T02:36:44;8.25;;;7.45;;
74872;SDS011;68776;44.762;37.698;2023-04-01T02:37:46;9.18;;;8.30;;
74872;SDS011;68776;44.762;37.698;2023-04-01T02:38:49;9.57;;;7.55;;
74872;SDS011;68776;44.762;37.698;2023-04-01T02:39:52;8.02;;;7.07;;
74872;SDS011;68776;44.762;37.698;2023-04-01T02:40:57;8.05;;;7.25;;
74872;SDS011;68776;44.762;37.698;2023-04-01T02:42:00;9.13;;;8.18;;
74872;SDS011;68776;44.762;37.698;2023-04-01T02:43:03;8.88;;;7.97;;
74872;SDS011;68776;44.762;37.698;2023-04-01T02:44:04;9.10;;;8.17;;
74872;SDS011;68776;44.762;37.698;2023-04-01T02:45:05;8.70;;;7.80;;
74872;SDS011;68776;44.762;37.698;2023-04-01T02:46:07;9.13;;;8.23;;
74872;SDS011;68776;44.762;37.698;2023-04-01T02:47:08;9.13;;;8.23;;
74872;SDS011;68776;44.762;37.698;2023-04-01T02:48:09;9.98;;;9.05;;
74872;SDS011;68776;44.762;37.698;2023-04-01T02:49:10;8.53;;;7.47;;
74872;SDS011;68776;44.762;37.698;2023-04-01T02:50:11;9.00;;;8.10;;
74872;SDS011;68776;44.762;37.698;2023-04-01T02:51:12;7.60;;;6.80;;
74872;SDS011;68776;44.762;37.698;2023-04-01T02:52:13;9.40;;;8.53;;
74872;SDS011;68776;44.762;37.698;2023-04-01T02:53:14;9.05;;;8.15;;
74872;SDS011;68776;44.762;37.698;2023-04-01T02:54:15;9.63;;;8.73;;
74872;SDS011;68776;44.762;37.698;2023-04-01T02:55:16;8.88;;;7.97;;
74872;SDS011;68776;44.762;37.698;2023-04-01T02:56:17;9.13;;;8.23;;
74872;SDS011;68776;44.762;37.698;2023-04-01T02:57:19;8.88;;;8.00;;
74872;SDS011;68776;44.762;37.698;2023-04-01T02:58:21;9.52;;;7.00;;
74872;SDS011;68776;44.762;37.698;2023-04-01T02:59:22;9.35;;;8.45;;
74872;SDS011;68776;44.762;37.698;2023-04-01T03:00:23;8.48;;;7.35;;
74872;SDS011;68776;44.762;37.698;2023-04-01T03:01:25;10.30;;;8.30;;
74872;SDS011;68776;44.762;37.698;2023-04-01T03:02:26;9.70;;;8.70;;
74872;SDS011;68776;44.762;37.698;2023-04-01T03:03:27;8.68;;;7.55;;
74872;SDS011;68776;44.762;37.698;2023-04-01T03:04:28;9.00;;;8.10;;
74872;SDS011;68776;44.762;37.698;2023-04-01T03:05:29;10.25;;;9.25;;
74872;SDS011;68776;44.762;37.698;2023-04-01T03:06:30;11.20;;;8.38;;
74872;SDS011;68776;44.762;37.698;2023-04-01T03:07:31;9.20;;;8.23;;
74872;SDS011;68776;44.762;37.698;2023-04-01T03:08:32;8.60;;;7.60;;
74872;SDS011;68776;44.762;37.698;2023-04-01T03:09:33;8.85;;;7.95;;
74872;SDS011;68776;44.762;37.698;2023-04-01T03:10:34;9.63;;;8.17;;
74872;SDS011;68776;44.762;37.698;2023-04-01T03:11:35;10.57;;;9.57;;
74872;SDS011;68776;44.762;37.698;2023-04-01T03:12:36;10.07;;;8.57;;
74872;SDS011;68776;44.762;37.698;2023-04-01T03:13:37;9.35;;;7.80;;
74872;SDS011;68776;44.762;37.698;2023-04-01T03:14:38;9.00;;;8.10;;
74872;SDS011;68776;44.762;37.698;2023-04-01T03:15:39;10.48;;;9.55;;
74872;SDS011;68776;44.762;37.698;2023-04-01T03:16:40;9.57;;;8.57;;
74872;SDS011;68776;44.762;37.698;2023-04-01T03:17:41;9.65;;;8.65;;
74872;SDS011;68776;44.762;37.698;2023-04-01T03:18:43;10.68;;;8.68;;
74872;SDS011;68776;44.762;37.698;2023-04-01T03:19:45;10.40;;;8.55;;
74872;SDS011;68776;44.762;37.698;2023-04-01T03:20:46;8.93;;;7.55;;
74872;SDS011;68776;44.762;37.698;2023-04-01T03:21:47;9.45;;;7.43;;
74872;SDS011;68776;44.762;37.698;2023-04-01T03:22:48;9.45;;;8.15;;
74872;SDS011;68776;44.762;37.698;2023-04-01T03:23:49;8.75;;;7.63;;
74872;SDS011;68776;44.762;37.698;2023-04-01T03:24:50;9.95;;;8.13;;
74872;SDS011;68776;44.762;37.698;2023-04-01T03:25:51;8.15;;;7.00;;
74872;SDS011;68776;44.762;37.698;2023-04-01T03:26:52;8.63;;;7.05;;
74872;SDS011;68776;44.762;37.698;2023-04-01T03:27:53;9.18;;;7.70;;
74872;SDS011;68776;44.762;37.698;2023-04-01T03:28:55;9.23;;;8.32;;
74872;SDS011;68776;44.762;37.698;2023-04-01T03:29:56;9.65;;;8.65;;
74872;SDS011;68776;44.762;37.698;2023-04-01T03:30:57;8.77;;;7.53;;
74872;SDS011;68776;44.762;37.698;2023-04-01T03:31:58;8.63;;;7.25;;
74872;SDS011;68776;44.762;37.698;2023-04-01T03:32:59;10.38;;;9.07;;
74872;SDS011;68776;44.762;37.698;2023-04-01T03:34:01;9.25;;;8.35;;
74872;SDS011;68776;44.762;37.698;2023-04-01T03:35:02;9.95;;;7.95;;
74872;SDS011;68776;44.762;37.698;2023-04-01T03:36:03;8.13;;;7.28;;
74872;SDS011;68776;44.762;37.698;2023-04-01T03:37:06;8.73;;;7.82;;
74872;SDS011;68776;44.762;37.698;2023-04-01T03:38:07;10.48;;;7.65;;
74872;SDS011;68776;44.762;37.698;2023-04-01T03:39:08;8.05;;;7.18;;
74872;SDS011;68776;44.762;37.698;2023-04-01T03:40:15;8.23;;;7.40;;
74872;SDS011;68776;44.762;37.698;2023-04-01T03:41:16;7.20;;;5.70;;
74872;SDS011;68776;44.762;37.698;2023-04-01T03:42:18;8.43;;;7.55;;
74872;SDS011;68776;44.762;37.698;2023-04-01T03:43:19;7.90;;;6.30;;
74872;SDS011;68776;44.762;37.698;2023-04-01T03:44:20;6.85;;;5.95;;
74872;SDS011;68776;44.762;37.698;2023-04-01T03:45:25;7.72;;;6.32;;
74872;SDS011;68776;44.762;37.698;2023-04-01T03:46:26;8.43;;;6.38;;
74872;SDS011;68776;44.762;37.698;2023-04-01T03:47:27;7.03;;;6.10;;
74872;SDS011;68776;44.762;37.698;2023-04-01T03:48:28;7.20;;;6.00;;
74872;SDS011;68776;44.762;37.698;2023-04-01T03:49:29;7.88;;;5.65;;
74872;SDS011;68776;44.762;37.698;2023-04-01T03:50:30;8.13;;;5.15;;
74872;SDS011;68776;44.762;37.698;2023-04-01T03:51:31;7.40;;;4.72;;
74872;SDS011;68776;44.762;37.698;2023-04-01T03:52:32;7.13;;;5.05;;
74872;SDS011;68776;44.762;37.698;2023-04-01T03:53:33;6.80;;;4.65;;
74872;SDS011;68776;44.762;37.698;2023-04-01T03:54:38;9.63;;;4.43;;
74872;SDS011;68776;44.762;37.698;2023-04-01T03:55:39;6.82;;;4.85;;
74872;SDS011;68776;44.762;37.698;2023-04-01T03:56:40;8.00;;;4.40;;
74872;SDS011;68776;44.762;37.698;2023-04-01T03:57:41;8.77;;;4.75;;
74872;SDS011;68776;44.762;37.698;2023-04-01T03:58:50;6.97;;;4.20;;
74872;SDS011;68776;44.762;37.698;2023-04-01T03:59:51;8.45;;;3.55;;
74872;SDS011;68776;44.762;37.698;2023-04-01T04:00:52;6.35;;;3.72;;
74872;SDS011;68776;44.762;37.698;2023-04-01T04:01:53;7.63;;;4.07;;
74872;SDS011;68776;44.762;37.698;2023-04-01T04:02:54;8.93;;;4.10;;
74872;SDS011;68776;44.762;37.698;2023-04-01T04:04:01;5.20;;;2.72;;
74872;SDS011;68776;44.762;37.698;2023-04-01T04:05:02;7.20;;;3.05;;
74872;SDS011;68776;44.762;37.698;2023-04-01T04:06:03;6.85;;;2.67;;
74872;SDS011;68776;44.762;37.698;2023-04-01T04:07:05;6.60;;;2.70;;
74872;SDS011;68776;44.762;37.698;2023-04-01T04:08:21;6.30;;;2.22;;
74872;SDS011;68776;44.762;37.698;2023-04-01T04:09:23;6.30;;;2.53;;
74872;SDS011;68776;44.762;37.698;2023-04-01T04:10:24;6.85;;;2.50;;
74872;SDS011;68776;44.762;37.698;2023-04-01T04:11:25;7.20;;;2.50;;
74872;SDS011;68776;44.762;37.698;2023-04-01T04:12:27;5.65;;;1.92;;
74872;SDS011;68776;44.762;37.698;2023-04-01T04:13:28;7.50;;;2.10;;
74872;SDS011;68776;44.762;37.698;2023-04-01T04:14:34;7.28;;;2.13;;
74872;SDS011;68776;44.762;37.698;2023-04-01T04:15:35;4.95;;;1.60;;
74872;SDS011;68776;44.762;37.698;2023-04-01T04:16:36;5.43;;;1.60;;
74872;SDS011;68776;44.762;37.698;2023-04-01T04:17:37;4.97;;;1.50;;
74872;SDS011;68776;44.762;37.698;2023-04-01T04:18:38;5.87;;;1.40;;
74872;SDS011;68776;44.762;37.698;2023-04-01T04:19:39;6.63;;;1.50;;
74872;SDS011;68776;44.762;37.698;2023-04-01T04:20:44;5.13;;;1.50;;
74872;SDS011;68776;44.762;37.698;2023-04-01T04:21:47;5.47;;;1.30;;
74872;SDS011;68776;44.762;37.698;2023-04-01T04:22:48;5.32;;;1.67;;
74872;SDS011;68776;44.762;37.698;2023-04-01T04:23:49;5.88;;;1.60;;
74872;SDS011;68776;44.762;37.698;2023-04-01T04:24:52;4.93;;;1.50;;
74872;SDS011;68776;44.762;37.698;2023-04-01T04:26:04;5.07;;;1.40;;
74872;SDS011;68776;44.762;37.698;2023-04-01T04:27:06;6.15;;;1.48;;
74872;SDS011;68776;44.762;37.698;2023-04-01T04:28:10;4.68;;;1.40;;
74872;SDS011;68776;44.762;37.698;2023-04-01T04:29:11;7.70;;;1.60;;
74872;SDS011;68776;44.762;37.698;2023-04-01T04:30:12;5.53;;;1.50;;
74872;SDS011;68776;44.762;37.698;2023-04-01T04:31:18;5.95;;;1.60;;
74872;SDS011;68776;44.762;37.698;2023-04-01T04:32:21;6.85;;;1.38;;
74872;SDS011;68776;44.762;37.698;2023-04-01T04:33:22;5.60;;;1.30;;
74872;SDS011;68776;44.762;37.698;2023-04-01T04:34:23;4.40;;;1.40;;
74872;SDS011;68776;44.762;37.698;2023-04-01T04:35:24;4.70;;;1.30;;
74872;SDS011;68776;44.762;37.698;2023-04-01T04:36:25;6.28;;;1.30;;
74872;SDS011;68776;44.762;37.698;2023-04-01T04:37:27;5.28;;;1.40;;
74872;SDS011;68776;44.762;37.698;2023-04-01T04:38:28;5.57;;;1.63;;
74872;SDS011;68776;44.762;37.698;2023-04-01T04:39:29;4.78;;;1.20;;
74872;SDS011;68776;44.762;37.698;2023-04-01T04:40:30;5.50;;;1.30;;
74872;SDS011;68776;44.762;37.698;2023-04-01T04:41:31;7.10;;;1.52;;
74872;SDS011;68776;44.762;37.698;2023-04-01T04:42:32;4.30;;;1.20;;
74872;SDS011;68776;44.762;37.698;2023-04-01T04:43:47;5.93;;;1.50;;
74872;SDS011;68776;44.762;37.698;2023-04-01T04:44:49;7.78;;;1.48;;
74872;SDS011;68776;44.762;37.698;2023-04-01T04:45:51;5.88;;;1.33;;
74872;SDS011;68776;44.762;37.698;2023-04-01T04:46:52;5.78;;;1.40;;
74872;SDS011;68776;44.762;37.698;2023-04-01T04:47:53;5.97;;;1.50;;
74872;SDS011;68776;44.762;37.698;2023-04-01T04:48:54;5.22;;;1.20;;
74872;SDS011;68776;44.762;37.698;2023-04-01T04:49:55;5.00;;;1.30;;
74872;SDS011;68776;44.762;37.698;2023-04-01T04:50:56;5.60;;;1.30;;
74872;SDS011;68776;44.762;37.698;2023-04-01T04:51:59;4.97;;;1.30;;
74872;SDS011;68776;44.762;37.698;2023-04-01T04:53:02;6.22;;;1.45;;
74872;SDS011;68776;44.762;37.698;2023-04-01T04:54:05;6.45;;;1.50;;
74872;SDS011;68776;44.762;37.698;2023-04-01T04:55:29;6.65;;;1.30;;
74872;SDS011;68776;44.762;37.698;2023-04-01T04:56:53;6.50;;;1.50;;
74872;SDS011;68776;44.762;37.698;2023-04-01T04:57:55;5.25;;;1.30;;
74872;SDS011;68776;44.762;37.698;2023-04-01T04:58:57;5.55;;;2.10;;
74872;SDS011;68776;44.762;37.698;2023-04-01T05:00:06;4.22;;;1.40;;
74872;SDS011;68776;44.762;37.698;2023-04-01T05:01:28;5.53;;;1.63;;
74872;SDS011;68776;44.762;37.698;2023-04-01T05:02:29;7.68;;;1.50;;
74872;SDS011;68776;44.762;37.698;2023-04-01T05:03:30;6.90;;;1.45;;
74872;SDS011;68776;44.762;37.698;2023-04-01T05:04:35;5.82;;;1.38;;
74872;SDS011;68776;44.762;37.698;2023-04-01T05:05:38;5.22;;;1.30;;
74872;SDS011;68776;44.762;37.698;2023-04-01T05:06:39;6.90;;;1.53;;
74872;SDS011;68776;44.762;37.698;2023-04-01T05:07:41;5.45;;;1.55;;
74872;SDS011;68776;44.762;37.698;2023-04-01T05:08:42;4.88;;;1.20;;
74872;SDS011;68776;44.762;37.698;2023-04-01T05:09:44;5.18;;;1.40;;
74872;SDS011;68776;44.762;37.698;2023-04-01T05:10:46;6.18;;;1.50;;
74872;SDS011;68776;44.762;37.698;2023-04-01T05:11:47;5.68;;;1.38;;
74872;SDS011;68776;44.762;37.698;2023-04-01T05:12:48;6.88;;;1.42;;
74872;SDS011;68776;44.762;37.698;2023-04-01T05:13:53;5.82;;;1.50;;
74872;SDS011;68776;44.762;37.698;2023-04-01T05:14:54;6.28;;;1.67;;
74872;SDS011;68776;44.762;37.698;2023-04-01T05:15:55;6.18;;;1.30;;
74872;SDS011;68776;44.762;37.698;2023-04-01T05:16:56;6.07;;;1.30;;
74872;SDS011;68776;44.762;37.698;2023-04-01T05:17:57;4.70;;;1.30;;
74872;SDS011;68776;44.762;37.698;2023-04-01T05:18:58;5.70;;;1.40;;
74872;SDS011;68776;44.762;37.698;2023-04-01T05:19:59;6.10;;;1.45;;
74872;SDS011;68776;44.762;37.698;2023-04-01T05:21:01;7.55;;;1.63;;
74872;SDS011;68776;44.762;37.698;2023-04-01T05:22:02;5.57;;;1.38;;
74872;SDS011;68776;44.762;37.698;2023-04-01T05:23:04;7.20;;;1.70;;
74872;SDS011;68776;44.762;37.698;2023-04-01T05:24:07;6.63;;;1.50;;
74872;SDS011;68776;44.762;37.698;2023-04-01T05:25:10;5.72;;;1.52;;
74872;SDS011;68776;44.762;37.698;2023-04-01T05:26:12;6.93;;;1.60;;
74872;SDS011;68776;44.762;37.698;2023-04-01T05:27:15;5.53;;;1.40;;
74872;SDS011;68776;44.762;37.698;2023-04-01T05:28:17;4.65;;;1.30;;
74872;SDS011;68776;44.762;37.698;2023-04-01T05:29:19;4.80;;;1.38;;
74872;SDS011;68776;44.762;37.698;2023-04-01T05:30:25;6.10;;;1.30;;
74872;SDS011;68776;44.762;37.698;2023-04-01T05:31:35;7.35;;;1.63;;
74872;SDS011;68776;44.762;37.698;2023-04-01T05:32:37;5.28;;;1.30;;
74872;SDS011;68776;44.762;37.698;2023-04-01T05:33:38;7.05;;;1.55;;
74872;SDS011;68776;44.762;37.698;2023-04-01T05:34:39;7.22;;;1.63;;
74872;SDS011;68776;44.762;37.698;2023-04-01T05:35:42;4.40;;;1.40;;
74872;SDS011;68776;44.762;37.698;2023-04-01T05:36:43;6.00;;;1.30;;
74872;SDS011;68776;44.762;37.698;2023-04-01T05:37:44;5.10;;;1.40;;
74872;SDS011;68776;44.762;37.698;2023-04-01T05:38:45;5.97;;;1.40;;
74872;SDS011;68776;44.762;37.698;2023-04-01T05:39:47;6.57;;;1.35;;
74872;SDS011;68776;44.762;37.698;2023-04-01T05:40:48;5.95;;;1.45;;
74872;SDS011;68776;44.762;37.698;2023-04-01T05:41:49;7.22;;;1.40;;
74872;SDS011;68776;44.762;37.698;2023-04-01T05:42:50;5.43;;;1.40;;
74872;SDS011;68776;44.762;37.698;2023-04-01T05:43:51;5.88;;;1.42;;
74872;SDS011;68776;44.762;37.698;2023-04-01T05:45:11;5.78;;;1.30;;
74872;SDS011;68776;44.762;37.698;2023-04-01T05:46:38;5.07;;;1.20;;
74872;SDS011;68776;44.762;37.698;2023-04-01T05:48:08;5.85;;;1.50;;
74872;SDS011;68776;44.762;37.698;2023-04-01T05:49:13;6.63;;;1.80;;
74872;SDS011;68776;44.762;37.698;2023-04-01T05:50:14;4.28;;;1.25;;
74872;SDS011;68776;44.762;37.698;2023-04-01T05:51:15;8.65;;;1.70;;
74872;SDS011;68776;44.762;37.698;2023-04-01T05:52:16;5.53;;;1.20;;
74872;SDS011;68776;44.762;37.698;2023-04-01T05:53:17;6.37;;;1.50;;
74872;SDS011;68776;44.762;37.698;2023-04-01T05:54:19;6.97;;;1.45;;
74872;SDS011;68776;44.762;37.698;2023-04-01T05:55:20;6.05;;;1.50;;
74872;SDS011;68776;44.762;37.698;2023-04-01T05:56:23;7.07;;;1.50;;
74872;SDS011;68776;44.762;37.698;2023-04-01T05:57:25;8.95;;;1.65;;
74872;SDS011;68776;44.762;37.698;2023-04-01T05:58:26;7.78;;;1.70;;
74872;SDS011;68776;44.762;37.698;2023-04-01T05:59:28;4.95;;;1.50;;
74872;SDS011;68776;44.762;37.698;2023-04-01T06:00:31;7.68;;;1.90;;
74872;SDS011;68776;44.762;37.698;2023-04-01T06:01:33;9.07;;;1.60;;
74872;SDS011;68776;44.762;37.698;2023-04-01T06:02:34;6.25;;;1.30;;
74872;SDS011;68776;44.762;37.698;2023-04-01T06:03:37;6.97;;;1.80;;
74872;SDS011;68776;44.762;37.698;2023-04-01T06:04:38;6.53;;;1.30;;
74872;SDS011;68776;44.762;37.698;2023-04-01T06:05:41;5.80;;;1.50;;
74872;SDS011;68776;44.762;37.698;2023-04-01T06:06:43;5.90;;;1.35;;
74872;SDS011;68776;44.762;37.698;2023-04-01T06:07:47;7.88;;;1.50;;
74872;SDS011;68776;44.762;37.698;2023-04-01T06:08:49;7.45;;;1.65;;
74872;SDS011;68776;44.762;37.698;2023-04-01T06:09:50;5.93;;;1.50;;
74872;SDS011;68776;44.762;37.698;2023-04-01T06:14:49;7.95;;;1.60;;
74872;SDS011;68776;44.762;37.698;2023-04-01T06:22:42;12.40;;;2.60;;
74872;SDS011;68776;44.762;37.698;2023-04-01T06:27:54;7.90;;;1.77;;
74872;SDS011;68776;44.762;37.698;2023-04-01T06:35:50;6.28;;;1.55;;
74872;SDS011;68776;44.762;37.698;2023-04-01T06:41:12;6.78;;;1.38;;
74872;SDS011;68776;44.762;37.698;2023-04-01T06:50:48;5.05;;;1.30;;
74872;SDS011;68776;44.762;37.698;2023-04-01T06:52:30;6.50;;;1.63;;
74872;SDS011;68776;44.762;37.698;2023-04-01T06:55:56;5.88;;;1.40;;
74872;SDS011;68776;44.762;37.698;2023-04-01T06:57:32;6.87;;;1.50;;
74872;SDS011;68776;44.762;37.698;2023-04-01T06:58:57;5.65;;;1.40;;
74872;SDS011;68776;44.762;37.698;2023-04-01T07:00:11;6.97;;;1.55;;
74872;SDS011;68776;44.762;37.698;2023-04-01T07:02:39;9.30;;;1.50;;
74872;SDS011;68776;44.762;37.698;2023-04-01T07:03:59;6.00;;;1.30;;
74872;SDS011;68776;44.762;37.698;2023-04-01T07:05:10;8.43;;;1.70;;
74872;SDS011;68776;44.762;37.698;2023-04-01T07:06:14;6.60;;;1.60;;
74872;SDS011;68776;44.762;37.698;2023-04-01T07:07:41;6.10;;;1.40;;
74872;SDS011;68776;44.762;37.698;2023-04-01T07:08:47;6.30;;;1.42;;
74872;SDS011;68776;44.762;37.698;2023-04-01T07:09:53;6.63;;;1.45;;
74872;SDS011;68776;44.762;37.698;2023-04-01T07:11:05;8.43;;;1.50;;
74872;SDS011;68776;44.762;37.698;2023-04-01T07:15:36;7.13;;;1.57;;
74872;SDS011;68776;44.762;37.698;2023-04-01T07:16:43;6.20;;;1.40;;
74872;SDS011;68776;44.762;37.698;2023-04-01T07:17:54;6.15;;;1.40;;
74872;SDS011;68776;44.762;37.698;2023-04-01T07:20:41;7.30;;;1.40;;
74872;SDS011;68776;44.762;37.698;2023-04-01T07:21:44;7.38;;;1.63;;